Time;durP1;ratioP1;P1;durP2;ratioP2;P2;SDS_P1;SDS_P2;PMS_P1;PMS_P2;Temp;Humidity;BMP_temperature;BMP_pressure;BME280_temperature;BME280_humidity;BME280_pressure;Samples;Min_cycle;Max_cycle;Signal;HPM_P1;HPM_P2
2023/11/30 00:02:32;;;;;;;24.80;14.05;;;;;;;;;;5094737;28;20027;-70
2023/11/30 00:05:17;;;;;;;22.88;13.75;;;;;;;;;;5095467;28;20477;-70
2023/11/30 00:08:03;;;;;;;24.08;13.70;;;;;;;;;;5094850;28;20023;-70
2023/11/30 00:10:49;;;;;;;21.77;12.35;;;;;;;;;;5094696;28;20055;-69
2023/11/30 00:13:34;;;;;;;23.33;13.27;;;;;;;;;;5081073;28;20020;-70
2023/11/30 00:16:20;;;;;;;22.67;12.95;;;;;;;;;;5094875;28;20070;-69
2023/11/30 00:19:05;;;;;;;24.00;13.27;;;;;;;;;;5095459;28;20467;-69
2023/11/30 00:21:51;;;;;;;22.52;13.20;;;;;;;;;;5095350;28;20039;-69
2023/11/30 00:24:36;;;;;;;26.17;13.95;;;;;;;;;;5095103;28;20020;-69
2023/11/30 00:27:22;;;;;;;23.27;13.75;;;;;;;;;;5081304;28;20107;-70
2023/11/30 00:30:08;;;;;;;24.63;13.63;;;;;;;;;;5080530;28;20463;-69
2023/11/30 00:32:53;;;;;;;24.40;13.10;;;;;;;;;;5094599;28;20325;-70
2023/11/30 00:35:39;;;;;;;23.17;12.98;;;;;;;;;;5095771;28;20456;-69
2023/11/30 00:38:25;;;;;;;25.15;14.30;;;;;;;;;;5095875;28;20020;-70
2023/11/30 00:41:14;;;;;;;22.27;13.13;;;;;;;;;;5093859;28;20020;-69
2023/11/30 00:43:59;;;;;;;23.17;13.00;;;;;;;;;;5079559;28;20023;-70
2023/11/30 00:46:45;;;;;;;23.63;13.60;;;;;;;;;;5094591;28;20016;-69
2023/11/30 00:49:30;;;;;;;24.38;13.60;;;;;;;;;;5095434;28;20020;-70
2023/11/30 00:52:16;;;;;;;22.27;12.40;;;;;;;;;;5094102;28;20124;-70
2023/11/30 00:55:01;;;;;;;23.52;13.75;;;;;;;;;;5080073;28;20023;-68
2023/11/30 00:57:48;;;;;;;22.23;12.25;;;;;;;;;;5095359;28;20452;-71
2023/11/30 01:00:33;;;;;;;21.85;13.25;;;;;;;;;;5093555;28;20035;-70
2023/11/30 01:03:19;;;;;;;23.77;12.38;;;;;;;;;;5094554;28;20020;-71
2023/11/30 01:06:04;;;;;;;22.50;12.90;;;;;;;;;;5094108;28;20020;-70
2023/11/30 01:08:50;;;;;;;22.35;12.95;;;;;;;;;;5094125;28;20479;-70
2023/11/30 01:11:42;;;;;;;21.88;12.52;;;;;;;;;;5095157;28;20024;-70
2023/11/30 01:14:28;;;;;;;23.65;12.63;;;;;;;;;;5096853;28;20024;-70
2023/11/30 01:17:13;;;;;;;24.48;12.80;;;;;;;;;;5085054;28;20020;-69
2023/11/30 01:19:59;;;;;;;22.08;12.90;;;;;;;;;;5084530;28;20096;-71
2023/11/30 01:22:45;;;;;;;22.38;13.00;;;;;;;;;;5098144;28;20511;-70
2023/11/30 01:25:30;;;;;;;24.33;13.07;;;;;;;;;;5098440;28;20104;-71
2023/11/30 01:28:16;;;;;;;21.45;12.73;;;;;;;;;;5098176;28;20076;-71
2023/11/30 01:31:01;;;;;;;23.23;12.35;;;;;;;;;;5098354;28;20016;-73
2023/11/30 01:33:47;;;;;;;21.20;12.25;;;;;;;;;;5098656;28;20024;-71
2023/11/30 01:36:33;;;;;;;20.63;12.05;;;;;;;;;;5098982;28;20024;-70
2023/11/30 01:39:18;;;;;;;21.80;12.00;;;;;;;;;;5097591;28;20020;-71
2023/11/30 01:42:04;;;;;;;21.55;12.57;;;;;;;;;;5099033;28;20016;-71
2023/11/30 01:44:49;;;;;;;20.60;12.52;;;;;;;;;;5097518;28;20038;-72
2023/11/30 01:47:35;;;;;;;23.20;13.35;;;;;;;;;;5099239;28;20448;-72
2023/11/30 01:50:22;;;;;;;22.25;12.95;;;;;;;;;;5083704;28;20084;-72
2023/11/30 01:53:08;;;;;;;22.65;12.98;;;;;;;;;;5098397;28;20035;-72
2023/11/30 01:55:55;;;;;;;20.98;12.57;;;;;;;;;;5098045;28;20353;-73
2023/11/30 01:58:41;;;;;;;22.58;12.68;;;;;;;;;;5082928;28;20085;-71
2023/11/30 02:01:27;;;;;;;21.23;12.77;;;;;;;;;;5097607;28;20024;-70
2023/11/30 02:04:13;;;;;;;20.27;12.52;;;;;;;;;;5098196;28;20394;-72
2023/11/30 02:06:59;;;;;;;21.08;11.70;;;;;;;;;;5082991;28;20028;-71
2023/11/30 02:09:45;;;;;;;20.90;12.45;;;;;;;;;;5097100;28;20036;-70
2023/11/30 02:12:31;;;;;;;21.00;12.30;;;;;;;;;;5096601;28;20016;-71
2023/11/30 02:15:16;;;;;;;23.98;12.73;;;;;;;;;;5096926;28;20016;-73
2023/11/30 02:18:02;;;;;;;22.30;13.13;;;;;;;;;;5096352;28;20024;-71
2023/11/30 02:20:48;;;;;;;21.63;12.52;;;;;;;;;;5083618;28;20451;-71
2023/11/30 02:23:33;;;;;;;19.80;12.00;;;;;;;;;;5096842;28;20013;-71
2023/11/30 02:26:19;;;;;;;21.85;12.52;;;;;;;;;;5096711;28;20363;-71
2023/11/30 02:29:06;;;;;;;21.05;12.60;;;;;;;;;;5096282;28;20031;-72
2023/11/30 02:31:51;;;;;;;22.27;13.50;;;;;;;;;;5097402;28;20028;-69
2023/11/30 02:34:37;;;;;;;22.35;12.60;;;;;;;;;;5097367;28;20031;-71
2023/11/30 02:37:23;;;;;;;23.95;13.25;;;;;;;;;;5096523;28;20016;-71
2023/11/30 02:40:08;;;;;;;21.90;12.75;;;;;;;;;;5097717;28;20051;-71
2023/11/30 02:42:54;;;;;;;23.27;12.88;;;;;;;;;;5097747;28;20360;-71
2023/11/30 02:45:40;;;;;;;22.23;12.20;;;;;;;;;;5097876;28;20028;-71
2023/11/30 02:48:25;;;;;;;21.45;13.00;;;;;;;;;;5097420;28;20012;-70
2023/11/30 02:51:11;;;;;;;23.48;12.20;;;;;;;;;;5095770;28;20362;-70
2023/11/30 02:53:56;;;;;;;19.42;12.05;;;;;;;;;;5097534;28;20027;-71
2023/11/30 02:56:42;;;;;;;22.45;12.80;;;;;;;;;;5097467;28;20019;-71
2023/11/30 02:59:28;;;;;;;22.08;12.55;;;;;;;;;;5096603;28;20513;-71
2023/11/30 03:02:14;;;;;;;23.58;13.20;;;;;;;;;;5097694;28;20031;-71
2023/11/30 03:05:00;;;;;;;23.17;13.57;;;;;;;;;;5096497;28;20066;-71
2023/11/30 03:07:45;;;;;;;23.45;13.60;;;;;;;;;;5095284;28;20051;-72
2023/11/30 03:10:31;;;;;;;21.75;13.60;;;;;;;;;;5095826;28;20024;-71
2023/11/30 03:13:16;;;;;;;24.35;14.05;;;;;;;;;;5097526;28;20101;-70
2023/11/30 03:16:02;;;;;;;24.92;13.73;;;;;;;;;;5096810;28;20328;-71
2023/11/30 03:18:47;;;;;;;21.60;13.40;;;;;;;;;;5096239;28;20012;-71
2023/11/30 03:21:33;;;;;;;22.42;13.25;;;;;;;;;;5095801;28;20043;-71
2023/11/30 03:24:19;;;;;;;23.23;13.52;;;;;;;;;;5095883;28;20154;-70
2023/11/30 03:27:05;;;;;;;23.23;13.27;;;;;;;;;;5095621;28;20356;-70
2023/11/30 03:29:50;;;;;;;23.02;13.73;;;;;;;;;;5095454;28;20083;-71
2023/11/30 03:32:36;;;;;;;22.40;13.50;;;;;;;;;;5096579;28;20013;-70
2023/11/30 03:35:21;;;;;;;23.48;13.98;;;;;;;;;;5096692;28;20020;-71
2023/11/30 03:38:07;;;;;;;23.60;13.68;;;;;;;;;;5096194;28;20035;-70
2023/11/30 03:40:52;;;;;;;25.13;13.93;;;;;;;;;;5095137;28;20032;-70
2023/11/30 03:43:38;;;;;;;26.42;14.30;;;;;;;;;;5096253;28;20016;-71
2023/11/30 03:46:24;;;;;;;27.90;15.18;;;;;;;;;;5095892;28;20437;-70
2023/11/30 03:49:10;;;;;;;24.33;13.38;;;;;;;;;;5095772;28;20455;-71
2023/11/30 03:51:55;;;;;;;29.52;14.10;;;;;;;;;;5094846;28;20106;-71
2023/11/30 03:54:41;;;;;;;24.85;14.68;;;;;;;;;;5095882;28;20020;-71
2023/11/30 03:57:27;;;;;;;26.02;15.07;;;;;;;;;;5095886;28;20074;-70
2023/11/30 04:00:14;;;;;;;24.17;13.55;;;;;;;;;;5095332;28;20202;-71
2023/11/30 04:02:59;;;;;;;27.42;14.93;;;;;;;;;;5094751;28;20059;-70
2023/11/30 04:05:45;;;;;;;23.88;14.20;;;;;;;;;;5095626;28;20032;-71
2023/11/30 04:08:30;;;;;;;27.45;15.63;;;;;;;;;;5081033;28;20460;-70
2023/11/30 04:11:16;;;;;;;26.42;14.88;;;;;;;;;;5095027;28;20034;-70
2023/11/30 04:14:06;;;;;;;27.75;15.15;;;;;;;;;;5093697;28;20088;-70
2023/11/30 04:16:51;;;;;;;28.95;15.20;;;;;;;;;;5094246;28;20020;-71
2023/11/30 04:19:37;;;;;;;28.67;14.70;;;;;;;;;;5094565;28;20058;-69
2023/11/30 04:22:23;;;;;;;26.55;15.02;;;;;;;;;;5080993;28;20035;-71
2023/11/30 04:25:08;;;;;;;27.75;15.40;;;;;;;;;;5095898;28;20020;-71
2023/11/30 04:27:54;;;;;;;27.88;15.30;;;;;;;;;;5094831;28;20028;-70
2023/11/30 04:30:39;;;;;;;25.60;14.70;;;;;;;;;;5080617;28;20416;-70
2023/11/30 04:33:25;;;;;;;31.95;15.18;;;;;;;;;;5095944;28;20012;-71
2023/11/30 04:36:13;;;;;;;31.77;15.27;;;;;;;;;;5094820;28;20106;-71
2023/11/30 04:38:59;;;;;;;25.60;14.43;;;;;;;;;;5094435;28;20035;-71
2023/11/30 04:41:44;;;;;;;26.60;14.98;;;;;;;;;;5094244;28;20165;-70
2023/11/30 04:44:30;;;;;;;26.60;14.73;;;;;;;;;;5096148;28;20340;-70
2023/11/30 04:47:16;;;;;;;25.33;14.95;;;;;;;;;;5095154;28;20422;-71
2023/11/30 04:50:02;;;;;;;27.45;15.73;;;;;;;;;;5098290;28;20038;-71
2023/11/30 04:52:47;;;;;;;26.90;14.57;;;;;;;;;;5099656;28;20135;-72
2023/11/30 04:55:33;;;;;;;25.23;14.35;;;;;;;;;;5084742;28;20158;-71
2023/11/30 04:58:18;;;;;;;25.33;13.70;;;;;;;;;;5098670;28;20496;-71
2023/11/30 05:01:04;;;;;;;27.40;14.45;;;;;;;;;;5084347;28;20067;-72
2023/11/30 05:03:50;;;;;;;26.92;15.02;;;;;;;;;;5099102;28;20024;-71
2023/11/30 05:06:36;;;;;;;26.33;14.57;;;;;;;;;;5099272;28;20329;-72
2023/11/30 05:09:21;;;;;;;24.60;14.38;;;;;;;;;;5099393;28;20108;-70
2023/11/30 05:12:07;;;;;;;26.85;14.98;;;;;;;;;;5099487;28;20028;-71
2023/11/30 05:14:52;;;;;;;29.77;15.82;;;;;;;;;;5099302;28;20035;-72
2023/11/30 05:17:38;;;;;;;32.03;16.90;;;;;;;;;;5098030;28;20453;-70
2023/11/30 05:20:24;;;;;;;32.80;16.70;;;;;;;;;;5098204;28;20020;-72
2023/11/30 05:23:09;;;;;;;32.42;16.10;;;;;;;;;;5098309;28;20368;-70
2023/11/30 05:25:55;;;;;;;33.85;16.73;;;;;;;;;;5097530;28;20020;-69
2023/11/30 05:28:40;;;;;;;30.27;16.48;;;;;;;;;;5098620;28;20077;-69
2023/11/30 05:31:26;;;;;;;26.27;15.02;;;;;;;;;;5098313;28;20026;-69
2023/11/30 05:34:11;;;;;;;27.58;14.57;;;;;;;;;;5084935;28;20019;-70
2023/11/30 05:36:57;;;;;;;25.25;13.85;;;;;;;;;;5084220;28;20028;-69
2023/11/30 05:39:43;;;;;;;23.08;12.75;;;;;;;;;;5097297;28;20452;-69
2023/11/30 05:42:28;;;;;;;23.67;13.32;;;;;;;;;;5098893;28;20040;-69
2023/11/30 05:45:14;;;;;;;24.05;14.07;;;;;;;;;;5097471;28;20016;-68
2023/11/30 05:48:00;;;;;;;23.85;14.02;;;;;;;;;;5097717;28;20028;-69
2023/11/30 05:50:45;;;;;;;28.13;14.85;;;;;;;;;;5082888;28;20086;-68
2023/11/30 05:53:31;;;;;;;27.33;13.90;;;;;;;;;;5099128;28;20031;-70
2023/11/30 05:56:16;;;;;;;25.33;14.65;;;;;;;;;;5097633;28;20410;-69
2023/11/30 05:59:02;;;;;;;27.65;14.65;;;;;;;;;;5098824;28;20081;-69
2023/11/30 06:01:48;;;;;;;28.45;15.35;;;;;;;;;;5084637;28;20063;-69
2023/11/30 06:04:34;;;;;;;35.55;17.63;;;;;;;;;;5096776;28;20024;-68
2023/11/30 06:07:20;;;;;;;27.65;15.95;;;;;;;;;;5097650;28;20028;-70
2023/11/30 06:10:06;;;;;;;26.00;14.88;;;;;;;;;;5082396;28;20023;-70
2023/11/30 06:12:52;;;;;;;25.48;14.48;;;;;;;;;;5097821;28;20012;-69
2023/11/30 06:15:37;;;;;;;26.55;15.05;;;;;;;;;;5096657;28;20056;-69
2023/11/30 06:18:23;;;;;;;33.47;18.40;;;;;;;;;;5083755;28;20028;-70
2023/11/30 06:21:09;;;;;;;24.00;14.30;;;;;;;;;;5098342;27;20024;-69
2023/11/30 06:23:55;;;;;;;27.30;14.05;;;;;;;;;;5097659;28;20169;-70
2023/11/30 06:26:41;;;;;;;24.55;13.93;;;;;;;;;;5097059;28;20020;-69
2023/11/30 06:29:28;;;;;;;27.65;13.93;;;;;;;;;;5096483;28;20016;-69
2023/11/30 06:32:14;;;;;;;24.15;14.15;;;;;;;;;;5096821;28;20035;-69
2023/11/30 06:34:59;;;;;;;24.75;13.90;;;;;;;;;;5096870;28;20020;-69
2023/11/30 06:37:45;;;;;;;22.17;12.68;;;;;;;;;;5096410;28;20052;-69
2023/11/30 06:40:31;;;;;;;23.27;13.60;;;;;;;;;;5097191;28;20024;-69
2023/11/30 06:43:16;;;;;;;24.15;14.30;;;;;;;;;;5098095;27;20089;-69
2023/11/30 06:46:02;;;;;;;25.23;14.18;;;;;;;;;;5082963;28;20444;-69
2023/11/30 06:48:48;;;;;;;25.38;14.55;;;;;;;;;;5097717;28;20099;-69
2023/11/30 06:51:33;;;;;;;25.80;13.93;;;;;;;;;;5095191;28;20465;-69
2023/11/30 06:54:20;;;;;;;28.55;14.07;;;;;;;;;;5082379;28;20031;-70
2023/11/30 06:57:06;;;;;;;28.15;14.52;;;;;;;;;;5095974;28;20107;-71
2023/11/30 06:59:51;;;;;;;24.92;14.00;;;;;;;;;;5082279;28;20020;-71
2023/11/30 07:02:37;;;;;;;25.30;14.00;;;;;;;;;;5096533;28;20501;-69
2023/11/30 07:05:22;;;;;;;26.88;14.00;;;;;;;;;;5082841;28;20031;-70
2023/11/30 07:08:08;;;;;;;26.60;13.27;;;;;;;;;;5097183;28;20035;-70
2023/11/30 07:10:54;;;;;;;24.98;12.77;;;;;;;;;;5096718;28;20028;-70
2023/11/30 07:13:40;;;;;;;21.45;12.73;;;;;;;;;;5082918;28;20444;-70
2023/11/30 07:16:25;;;;;;;20.90;12.07;;;;;;;;;;5096549;28;20024;-71
2023/11/30 07:19:11;;;;;;;20.05;11.32;;;;;;;;;;5096029;28;20034;-70
2023/11/30 07:21:57;;;;;;;20.60;12.05;;;;;;;;;;5096343;28;20031;-70
2023/11/30 07:24:46;;;;;;;18.90;11.50;;;;;;;;;;5080932;28;20020;-70
2023/11/30 07:27:32;;;;;;;22.08;11.90;;;;;;;;;;5095966;28;20027;-70
2023/11/30 07:30:18;;;;;;;21.27;11.43;;;;;;;;;;5081038;28;20440;-70
2023/11/30 07:33:04;;;;;;;18.48;11.38;;;;;;;;;;5081861;28;20020;-70
2023/11/30 07:35:50;;;;;;;22.42;12.20;;;;;;;;;;5095733;28;20028;-71
2023/11/30 07:38:36;;;;;;;21.25;11.98;;;;;;;;;;5081849;28;20055;-70
2023/11/30 07:41:21;;;;;;;26.25;12.85;;;;;;;;;;5081638;28;20403;-69
2023/11/30 07:44:07;;;;;;;18.98;11.77;;;;;;;;;;5081502;28;20114;-71
2023/11/30 07:46:53;;;;;;;20.10;12.18;;;;;;;;;;5094958;28;20016;-70
2023/11/30 07:49:38;;;;;;;21.48;11.80;;;;;;;;;;5082361;28;20028;-70
2023/11/30 07:52:24;;;;;;;20.58;11.18;;;;;;;;;;5095345;28;20123;-70
2023/11/30 07:55:10;;;;;;;16.75;11.25;;;;;;;;;;5095037;28;20027;-71
2023/11/30 07:57:56;;;;;;;19.10;12.27;;;;;;;;;;5081388;28;20035;-71
2023/11/30 08:00:42;;;;;;;15.65;10.48;;;;;;;;;;5095173;28;20436;-71
2023/11/30 08:03:27;;;;;;;20.85;11.57;;;;;;;;;;5081764;28;20099;-71
2023/11/30 08:06:13;;;;;;;17.77;10.93;;;;;;;;;;5095153;28;20034;-70
2023/11/30 08:08:59;;;;;;;17.02;11.18;;;;;;;;;;5081116;28;20402;-70
2023/11/30 08:11:44;;;;;;;19.30;11.50;;;;;;;;;;5094305;28;20024;-72
2023/11/30 08:14:30;;;;;;;17.55;10.82;;;;;;;;;;5096001;28;20020;-70
2023/11/30 08:17:16;;;;;;;15.23;10.15;;;;;;;;;;5081075;28;20024;-70
2023/11/30 08:20:01;;;;;;;14.18;9.90;;;;;;;;;;5080780;28;20055;-70
2023/11/30 08:22:47;;;;;;;18.33;11.40;;;;;;;;;;5095396;28;20093;-70
2023/11/30 08:25:33;;;;;;;17.25;10.23;;;;;;;;;;5094318;28;20016;-71
2023/11/30 08:28:19;;;;;;;21.35;9.52;;;;;;;;;;5095808;28;20444;-70
2023/11/30 08:31:04;;;;;;;12.70;8.07;;;;;;;;;;5094856;28;20097;-72
2023/11/30 08:33:50;;;;;;;12.52;8.30;;;;;;;;;;5094869;28;20039;-71
2023/11/30 08:36:36;;;;;;;15.00;9.02;;;;;;;;;;5094739;28;20024;-71
2023/11/30 08:39:23;;;;;;;11.43;8.35;;;;;;;;;;5094982;28;20403;-71
2023/11/30 08:42:09;;;;;;;12.95;8.77;;;;;;;;;;5095168;28;20030;-71
2023/11/30 08:44:55;;;;;;;14.45;9.15;;;;;;;;;;5096008;28;20054;-70
2023/11/30 08:47:42;;;;;;;11.88;8.45;;;;;;;;;;5094928;28;20055;-71
2023/11/30 08:50:28;;;;;;;14.45;8.90;;;;;;;;;;5080446;28;20457;-70
2023/11/30 08:53:15;;;;;;;16.42;8.65;;;;;;;;;;5095358;28;20032;-70
2023/11/30 08:56:01;;;;;;;12.00;8.35;;;;;;;;;;5081039;28;20048;-70
2023/11/30 08:58:47;;;;;;;14.35;9.23;;;;;;;;;;5094475;28;20111;-71
2023/11/30 09:01:32;;;;;;;23.92;10.00;;;;;;;;;;5094816;28;20020;-71
2023/11/30 09:04:18;;;;;;;15.77;9.23;;;;;;;;;;5094370;28;20089;-70
2023/11/30 09:07:03;;;;;;;14.05;7.90;;;;;;;;;;5095533;28;20086;-70
2023/11/30 09:09:49;;;;;;;14.45;8.23;;;;;;;;;;5078980;28;20468;-71
2023/11/30 09:12:38;;;;;;;24.35;9.68;;;;;;;;;;5080830;28;20020;-70
2023/11/30 09:15:23;;;;;;;12.45;9.00;;;;;;;;;;5094343;28;20088;-71
2023/11/30 09:18:10;;;;;;;28.13;10.30;;;;;;;;;;5080894;28;20063;-69
2023/11/30 09:20:56;;;;;;;14.20;10.25;;;;;;;;;;5080183;28;20055;-70
2023/11/30 09:23:51;;;;;;;14.80;9.45;;;;;;;;;;5080930;28;20066;-71
2023/11/30 09:26:36;;;;;;;15.15;9.52;;;;;;;;;;5095583;28;20020;-70
2023/11/30 09:29:22;;;;;;;17.00;9.75;;;;;;;;;;5080141;28;20027;-70
2023/11/30 09:32:07;;;;;;;15.23;9.63;;;;;;;;;;5079975;28;20012;-70
2023/11/30 09:34:53;;;;;;;14.93;8.77;;;;;;;;;;5081369;28;20012;-70
2023/11/30 09:37:39;;;;;;;20.55;9.23;;;;;;;;;;5083653;28;20047;-70
2023/11/30 09:40:26;;;;;;;17.25;10.57;;;;;;;;;;5097634;28;20387;-71
2023/11/30 09:43:15;;;;;;;14.05;8.95;;;;;;;;;;5083958;28;20038;-70
2023/11/30 09:46:00;;;;;;;16.55;9.65;;;;;;;;;;5098056;28;20043;-70
2023/11/30 09:48:46;;;;;;;45.05;11.68;;;;;;;;;;5098035;28;20016;-70
2023/11/30 09:51:32;;;;;;;23.77;9.63;;;;;;;;;;5083597;28;20406;-71
2023/11/30 09:54:19;;;;;;;14.98;8.63;;;;;;;;;;5082175;28;20020;-70
2023/11/30 09:57:05;;;;;;;11.93;8.32;;;;;;;;;;5097744;28;20055;-71
2023/11/30 09:59:51;;;;;;;14.38;8.32;;;;;;;;;;5097143;28;20383;-68
2023/11/30 10:02:36;;;;;;;23.55;9.35;;;;;;;;;;5097600;28;20027;-70
2023/11/30 10:05:22;;;;;;;49.88;12.43;;;;;;;;;;5082770;28;20054;-71
2023/11/30 10:08:07;;;;;;;24.38;9.80;;;;;;;;;;5097701;28;20084;-69
2023/11/30 10:10:54;;;;;;;12.98;8.45;;;;;;;;;;5081601;28;20031;-69
2023/11/30 10:13:39;;;;;;;15.52;9.50;;;;;;;;;;5097123;28;20380;-70
2023/11/30 10:16:28;;;;;;;13.70;8.65;;;;;;;;;;5097361;28;20081;-69
2023/11/30 10:19:14;;;;;;;15.68;9.07;;;;;;;;;;5097159;28;20028;-71
2023/11/30 10:22:00;;;;;;;53.78;11.02;;;;;;;;;;5081770;28;20024;-69
2023/11/30 10:24:46;;;;;;;14.60;8.40;;;;;;;;;;5096207;28;20443;-71
2023/11/30 10:27:32;;;;;;;13.30;8.27;;;;;;;;;;5097145;28;20551;-70
2023/11/30 10:30:18;;;;;;;16.88;9.60;;;;;;;;;;5095847;28;20024;-71
2023/11/30 10:33:06;;;;;;;13.98;9.10;;;;;;;;;;5096942;28;20065;-70
2023/11/30 10:35:53;;;;;;;17.02;9.10;;;;;;;;;;5081299;28;20020;-69
2023/11/30 10:38:38;;;;;;;30.42;10.48;;;;;;;;;;5097322;28;20428;-70
2023/11/30 10:41:27;;;;;;;20.02;10.07;;;;;;;;;;5096336;28;20035;-70
2023/11/30 10:44:13;;;;;;;17.88;10.00;;;;;;;;;;5097829;28;20019;-70
2023/11/30 10:46:59;;;;;;;17.83;9.63;;;;;;;;;;5097034;28;20092;-70
2023/11/30 10:49:46;;;;;;;17.27;10.05;;;;;;;;;;5096668;28;20020;-71
2023/11/30 10:52:33;;;;;;;18.48;10.70;;;;;;;;;;5080147;28;20036;-70
2023/11/30 10:55:19;;;;;;;20.15;10.13;;;;;;;;;;5097270;28;20042;-70
2023/11/30 10:58:06;;;;;;;20.35;9.93;;;;;;;;;;5081600;28;20020;-71
2023/11/30 11:00:57;;;;;;;16.15;10.23;;;;;;;;;;5096094;28;20028;-73
2023/11/30 11:03:52;;;;;;;16.45;10.15;;;;;;;;;;5081854;28;20046;-71
2023/11/30 11:06:38;;;;;;;16.92;10.23;;;;;;;;;;5080574;28;20035;-72
2023/11/30 11:09:23;;;;;;;18.63;10.57;;;;;;;;;;5082044;28;20031;-71
2023/11/30 11:12:26;;;;;;;19.38;11.27;;;;;;;;;;5082116;28;20107;-71
2023/11/30 11:15:11;;;;;;;20.10;10.77;;;;;;;;;;5096048;28;20077;-71
2023/11/30 11:18:05;;;;;;;23.38;10.25;;;;;;;;;;5096113;28;20115;-71
2023/11/30 11:20:52;;;;;;;21.55;9.77;;;;;;;;;;5095526;28;20035;-70
2023/11/30 11:23:39;;;;;;;27.30;10.00;;;;;;;;;;5081819;28;20451;-71
2023/11/30 11:26:24;;;;;;;61.38;12.13;;;;;;;;;;5081244;28;20034;-70
2023/11/30 11:29:12;;;;;;;26.73;10.38;;;;;;;;;;5096940;28;20024;-69
2023/11/30 11:31:59;;;;;;;38.85;9.98;;;;;;;;;;5095924;28;20040;-70
2023/11/30 11:34:44;;;;;;;30.48;9.65;;;;;;;;;;5097375;28;20036;-71
2023/11/30 11:37:30;;;;;;;20.52;8.07;;;;;;;;;;5081317;28;20371;-70
2023/11/30 11:40:17;;;;;;;10.68;6.65;;;;;;;;;;5095345;28;20024;-70
2023/11/30 11:43:02;;;;;;;14.25;6.75;;;;;;;;;;5081457;28;20237;-71
2023/11/30 11:45:48;;;;;;;10.75;5.70;;;;;;;;;;5094736;28;20020;-70
2023/11/30 11:48:34;;;;;;;14.68;7.57;;;;;;;;;;5081650;28;20392;-71
2023/11/30 11:51:19;;;;;;;20.23;6.90;;;;;;;;;;5094683;28;20047;-70
2023/11/30 11:54:05;;;;;;;55.67;9.32;;;;;;;;;;5095379;28;20018;-70
2023/11/30 11:57:01;;;;;;;15.73;6.13;;;;;;;;;;5096577;28;20051;-70
2023/11/30 11:59:47;;;;;;;14.68;8.20;;;;;;;;;;5080663;28;20341;-70
2023/11/30 12:02:35;;;;;;;8.30;5.53;;;;;;;;;;5094280;28;20360;-70
2023/11/30 12:05:24;;;;;;;30.40;8.45;;;;;;;;;;5095446;28;20364;-70
2023/11/30 12:08:14;;;;;;;37.47;8.07;;;;;;;;;;5095238;28;20481;-72
2023/11/30 12:11:04;;;;;;;23.73;8.40;;;;;;;;;;5081958;28;20031;-71
2023/11/30 12:14:08;;;;;;;15.73;7.20;;;;;;;;;;5082154;28;20020;-71
2023/11/30 12:16:54;;;;;;;17.52;8.73;;;;;;;;;;5095697;28;20028;-70
2023/11/30 12:19:43;;;;;;;22.42;9.07;;;;;;;;;;5081358;28;20107;-71
2023/11/30 12:22:35;;;;;;;66.53;12.48;;;;;;;;;;5093641;28;20024;-71
2023/11/30 12:25:28;;;;;;;23.75;8.68;;;;;;;;;;5081455;28;20020;-72
2023/11/30 12:28:13;;;;;;;13.75;9.32;;;;;;;;;;5081364;28;20027;-71
2023/11/30 12:31:02;;;;;;;16.20;9.15;;;;;;;;;;5095252;28;20081;-70
2023/11/30 12:33:54;;;;;;;17.48;9.57;;;;;;;;;;5095806;28;20372;-71
2023/11/30 12:36:40;;;;;;;23.20;9.43;;;;;;;;;;5094295;28;20092;-71
2023/11/30 12:39:25;;;;;;;13.20;8.68;;;;;;;;;;5095573;28;20024;-70
2023/11/30 12:42:15;;;;;;;23.63;9.00;;;;;;;;;;5095319;28;20085;-71
2023/11/30 12:45:00;;;;;;;15.18;8.40;;;;;;;;;;5081324;28;20035;-71
2023/11/30 12:47:46;;;;;;;140.82;15.75;;;;;;;;;;5080813;28;20056;-71
2023/11/30 12:50:32;;;;;;;164.02;16.02;;;;;;;;;;5094879;28;20055;-70
2023/11/30 12:53:21;;;;;;;22.35;8.52;;;;;;;;;;5094658;28;20028;-72
2023/11/30 12:56:06;;;;;;;17.60;7.47;;;;;;;;;;5096308;28;20020;-73
2023/11/30 12:58:52;;;;;;;11.07;6.65;;;;;;;;;;5095425;28;20028;-71
2023/11/30 13:01:37;;;;;;;17.65;7.70;;;;;;;;;;5094651;28;20028;-70
2023/11/30 13:04:23;;;;;;;15.52;7.47;;;;;;;;;;5091195;28;20024;-71
2023/11/30 13:07:10;;;;;;;10.73;7.22;;;;;;;;;;5094561;28;20024;-71
2023/11/30 13:09:55;;;;;;;23.13;7.28;;;;;;;;;;5094067;28;20016;-71
2023/11/30 13:12:41;;;;;;;15.20;9.40;;;;;;;;;;5096756;28;20016;-70
2023/11/30 13:15:27;;;;;;;16.55;7.80;;;;;;;;;;5097081;28;20039;-71
2023/11/30 13:18:12;;;;;;;14.18;8.10;;;;;;;;;;5097243;28;20024;-71
2023/11/30 13:20:58;;;;;;;23.40;7.57;;;;;;;;;;5084298;28;20081;-71
2023/11/30 13:23:43;;;;;;;8.63;5.80;;;;;;;;;;5064575;28;20025;-71
2023/11/30 13:26:29;;;;;;;58.03;8.13;;;;;;;;;;5077289;28;20099;-71
2023/11/30 13:29:15;;;;;;;16.38;5.82;;;;;;;;;;5076818;28;20032;-69
2023/11/30 13:32:00;;;;;;;12.63;5.05;;;;;;;;;;5076635;28;20016;-70
2023/11/30 13:34:46;;;;;;;10.10;5.25;;;;;;;;;;5076510;28;20357;-70
2023/11/30 13:37:32;;;;;;;9.40;6.03;;;;;;;;;;5076290;28;20057;-71
2023/11/30 13:40:19;;;;;;;11.88;6.47;;;;;;;;;;5076644;28;20028;-71
2023/11/30 13:43:05;;;;;;;13.27;6.63;;;;;;;;;;5076612;28;20035;-71
2023/11/30 13:45:52;;;;;;;11.82;6.75;;;;;;;;;;5077292;28;20513;-71
2023/11/30 13:48:37;;;;;;;13.02;6.50;;;;;;;;;;5076461;28;20020;-71
2023/11/30 13:51:23;;;;;;;27.23;7.45;;;;;;;;;;5076518;28;20393;-72
2023/11/30 13:54:09;;;;;;;27.15;8.32;;;;;;;;;;5076975;28;20028;-71
2023/11/30 13:56:55;;;;;;;31.65;7.20;;;;;;;;;;5061632;28;20415;-71
2023/11/30 13:59:40;;;;;;;14.85;7.20;;;;;;;;;;5090697;28;20028;-71
2023/11/30 14:02:26;;;;;;;14.82;6.80;;;;;;;;;;5082051;28;20107;-70
2023/11/30 14:05:12;;;;;;;28.33;8.25;;;;;;;;;;5096670;28;20024;-70
2023/11/30 14:07:57;;;;;;;11.13;7.10;;;;;;;;;;5097606;28;20036;-69
2023/11/30 14:10:43;;;;;;;15.80;7.82;;;;;;;;;;5096174;28;20020;-70
2023/11/30 14:13:28;;;;;;;14.90;7.07;;;;;;;;;;5096391;28;20099;-70
2023/11/30 14:16:14;;;;;;;12.85;7.43;;;;;;;;;;5096677;28;20024;-71
2023/11/30 14:19:00;;;;;;;15.85;7.60;;;;;;;;;;5096547;28;20024;-71
2023/11/30 14:21:46;;;;;;;26.75;8.85;;;;;;;;;;5097049;28;20502;-72
2023/11/30 14:24:32;;;;;;;33.72;8.80;;;;;;;;;;5096977;28;20372;-71
2023/11/30 14:27:19;;;;;;;14.68;8.52;;;;;;;;;;5096155;28;20032;-71
2023/11/30 14:30:08;;;;;;;15.52;8.48;;;;;;;;;;5097731;28;20085;-71
2023/11/30 14:32:54;;;;;;;18.63;9.10;;;;;;;;;;5095542;28;20344;-72
2023/11/30 14:35:40;;;;;;;34.58;10.30;;;;;;;;;;5095940;28;20050;-71
2023/11/30 14:38:25;;;;;;;20.90;9.63;;;;;;;;;;5095468;28;20023;-72
2023/11/30 14:41:11;;;;;;;18.15;9.85;;;;;;;;;;5095529;28;20356;-72
2023/11/30 14:43:57;;;;;;;54.28;11.75;;;;;;;;;;5095958;28;20095;-72
2023/11/30 14:46:42;;;;;;;28.55;9.80;;;;;;;;;;5096231;28;20401;-70
2023/11/30 14:49:28;;;;;;;45.45;11.30;;;;;;;;;;5080902;28;20024;-70
2023/11/30 14:52:15;;;;;;;21.50;10.23;;;;;;;;;;5077151;28;20049;-69
2023/11/30 14:55:01;;;;;;;30.85;11.70;;;;;;;;;;5059837;28;20043;-71
2023/11/30 14:57:47;;;;;;;23.27;12.13;;;;;;;;;;5060483;28;20039;-71
2023/11/30 15:00:33;;;;;;;19.88;12.10;;;;;;;;;;5074435;28;20028;-70
2023/11/30 15:03:19;;;;;;;39.78;12.98;;;;;;;;;;5073964;28;20078;-71
2023/11/30 15:06:06;;;;;;;46.85;21.02;;;;;;;;;;5075294;28;20069;-70
2023/11/30 15:08:51;;;;;;;22.17;13.40;;;;;;;;;;5074975;28;20031;-70
2023/11/30 15:11:37;;;;;;;24.63;13.02;;;;;;;;;;5074338;28;20502;-71
2023/11/30 15:14:23;;;;;;;24.92;13.27;;;;;;;;;;5074655;28;20024;-69
2023/11/30 15:17:09;;;;;;;25.00;14.02;;;;;;;;;;5074277;28;20081;-69
2023/11/30 15:19:55;;;;;;;31.42;14.85;;;;;;;;;;5075574;28;20032;-71
2023/11/30 15:22:41;;;;;;;29.67;15.43;;;;;;;;;;5060393;28;20095;-69
2023/11/30 15:25:26;;;;;;;29.45;14.80;;;;;;;;;;5074524;28;20026;-69
2023/11/30 15:28:12;;;;;;;31.20;14.80;;;;;;;;;;5074205;28;20415;-71
2023/11/30 15:30:59;;;;;;;45.78;17.98;;;;;;;;;;5074359;28;20020;-70
2023/11/30 15:33:44;;;;;;;28.10;15.88;;;;;;;;;;5073154;28;20340;-71
2023/11/30 15:36:32;;;;;;;48.80;17.70;;;;;;;;;;5074437;28;20418;-71
2023/11/30 15:39:23;;;;;;;33.38;17.08;;;;;;;;;;5074656;28;20017;-70
2023/11/30 15:42:10;;;;;;;39.17;17.45;;;;;;;;;;5073854;28;20028;-71
2023/11/30 15:44:56;;;;;;;32.33;16.75;;;;;;;;;;5074397;28;20099;-71
2023/11/30 15:47:41;;;;;;;32.28;16.20;;;;;;;;;;5073590;28;20409;-71
2023/11/30 15:50:27;;;;;;;33.33;17.67;;;;;;;;;;5062381;28;20063;-71
2023/11/30 15:53:13;;;;;;;36.75;19.13;;;;;;;;;;5079747;28;20035;-70
2023/11/30 15:55:58;;;;;;;35.15;17.95;;;;;;;;;;5080810;28;20372;-70
2023/11/30 15:58:44;;;;;;;36.20;16.83;;;;;;;;;;5094893;28;20027;-70
2023/11/30 16:01:30;;;;;;;60.28;18.20;;;;;;;;;;5080042;28;20368;-70
2023/11/30 16:04:16;;;;;;;33.65;16.55;;;;;;;;;;5079893;28;20416;-71
2023/11/30 16:07:02;;;;;;;40.05;18.02;;;;;;;;;;5080109;28;20444;-71
2023/11/30 16:09:47;;;;;;;41.95;18.83;;;;;;;;;;5094137;28;20034;-70
2023/11/30 16:12:33;;;;;;;41.08;20.77;;;;;;;;;;5094407;28;20020;-71